sensor_id;sensor_type;location;lat;lon;timestamp;temperature;humidity
68139;DHT22;54940;50.842;4.410;2022-09-20T00:01:08;13.70;99.90
68139;DHT22;54940;50.842;4.410;2022-09-20T00:03:36;13.70;99.90
68139;DHT22;54940;50.842;4.410;2022-09-20T00:06:04;13.60;99.90
68139;DHT22;54940;50.842;4.410;2022-09-20T00:08:30;13.60;99.90
68139;DHT22;54940;50.842;4.410;2022-09-20T00:11:05;13.60;99.90
68139;DHT22;54940;50.842;4.410;2022-09-20T00:13:32;13.50;99.90
68139;DHT22;54940;50.842;4.410;2022-09-20T00:15:58;13.50;99.90
68139;DHT22;54940;50.842;4.410;2022-09-20T00:18:25;13.50;99.90
68139;DHT22;54940;50.842;4.410;2022-09-20T00:20:51;13.50;99.90
68139;DHT22;54940;50.842;4.410;2022-09-20T00:23:18;13.40;99.90
68139;DHT22;54940;50.842;4.410;2022-09-20T00:25:44;13.40;99.90
68139;DHT22;54940;50.842;4.410;2022-09-20T00:28:11;13.30;99.90
68139;DHT22;54940;50.842;4.410;2022-09-20T00:30:37;13.30;99.90
68139;DHT22;54940;50.842;4.410;2022-09-20T00:33:04;13.40;99.90
68139;DHT22;54940;50.842;4.410;2022-09-20T00:35:29;13.30;99.90
68139;DHT22;54940;50.842;4.410;2022-09-20T00:37:56;13.30;99.90
68139;DHT22;54940;50.842;4.410;2022-09-20T00:40:23;13.30;99.90
68139;DHT22;54940;50.842;4.410;2022-09-20T00:42:49;13.30;99.90
68139;DHT22;54940;50.842;4.410;2022-09-20T00:45:22;13.20;99.90
68139;DHT22;54940;50.842;4.410;2022-09-20T00:53:12;13.20;99.90
68139;DHT22;54940;50.842;4.410;2022-09-20T00:56:21;13.20;99.90
68139;DHT22;54940;50.842;4.410;2022-09-20T00:58:56;13.20;99.90
68139;DHT22;54940;50.842;4.410;2022-09-20T01:01:24;13.20;99.90
68139;DHT22;54940;50.842;4.410;2022-09-20T01:03:50;13.10;99.90
68139;DHT22;54940;50.842;4.410;2022-09-20T01:06:17;13.20;99.90
68139;DHT22;54940;50.842;4.410;2022-09-20T01:08:46;13.10;99.90
68139;DHT22;54940;50.842;4.410;2022-09-20T01:11:13;13.10;99.90
68139;DHT22;54940;50.842;4.410;2022-09-20T01:13:39;13.10;99.90
68139;DHT22;54940;50.842;4.410;2022-09-20T01:16:05;12.90;99.90
68139;DHT22;54940;50.842;4.410;2022-09-20T01:18:33;12.70;99.90
68139;DHT22;54940;50.842;4.410;2022-09-20T01:21:01;12.70;99.90
68139;DHT22;54940;50.842;4.410;2022-09-20T01:32:00;12.40;99.90
68139;DHT22;54940;50.842;4.410;2022-09-20T01:34:35;12.30;99.90
68139;DHT22;54940;50.842;4.410;2022-09-20T01:37:13;12.30;99.90
68139;DHT22;54940;50.842;4.410;2022-09-20T01:40:11;12.20;99.90
68139;DHT22;54940;50.842;4.410;2022-09-20T01:42:42;12.20;99.90
68139;DHT22;54940;50.842;4.410;2022-09-20T01:45:26;12.20;99.90
68139;DHT22;54940;50.842;4.410;2022-09-20T01:48:16;12.20;99.90
68139;DHT22;54940;50.842;4.410;2022-09-20T01:59:39;12.20;99.90
68139;DHT22;54940;50.842;4.410;2022-09-20T02:08:28;12.10;99.90
68139;DHT22;54940;50.842;4.410;2022-09-20T02:13:32;12.20;99.90
68139;DHT22;54940;50.842;4.410;2022-09-20T02:32:22;12.10;99.90
68139;DHT22;54940;50.842;4.410;2022-09-20T02:45:55;12.00;99.90
68139;DHT22;54940;50.842;4.410;2022-09-20T02:48:53;11.90;99.90
68139;DHT22;54940;50.842;4.410;2022-09-20T02:59:42;12.20;99.90
68139;DHT22;54940;50.842;4.410;2022-09-20T03:17:50;12.10;99.90
68139;DHT22;54940;50.842;4.410;2022-09-20T03:20:36;12.20;99.90
68139;DHT22;54940;50.842;4.410;2022-09-20T03:26:17;12.10;99.90
68139;DHT22;54940;50.842;4.410;2022-09-20T03:31:32;12.00;99.90
68139;DHT22;54940;50.842;4.410;2022-09-20T03:42:23;11.90;99.90
68139;DHT22;54940;50.842;4.410;2022-09-20T03:47:46;12.00;99.90
68139;DHT22;54940;50.842;4.410;2022-09-20T04:01:17;12.10;99.90
68139;DHT22;54940;50.842;4.410;2022-09-20T04:03:56;12.00;99.90
68139;DHT22;54940;50.842;4.410;2022-09-20T04:06:38;12.00;99.90
68139;DHT22;54940;50.842;4.410;2022-09-20T04:09:45;12.00;99.90
68139;DHT22;54940;50.842;4.410;2022-09-20T04:17:44;12.00;99.90
68139;DHT22;54940;50.842;4.410;2022-09-20T04:22:44;12.20;99.90
68139;DHT22;54940;50.842;4.410;2022-09-20T04:25:18;12.00;99.90
68139;DHT22;54940;50.842;4.410;2022-09-20T04:27:49;12.00;99.90
68139;DHT22;54940;50.842;4.410;2022-09-20T04:30:21;12.00;99.90
68139;DHT22;54940;50.842;4.410;2022-09-20T04:35:51;12.00;99.90
68139;DHT22;54940;50.842;4.410;2022-09-20T04:38:39;11.90;99.90
68139;DHT22;54940;50.842;4.410;2022-09-20T04:49:25;11.90;99.90
68139;DHT22;54940;50.842;4.410;2022-09-20T05:00:20;11.80;99.90
68139;DHT22;54940;50.842;4.410;2022-09-20T05:14:57;11.70;99.90
68139;DHT22;54940;50.842;4.410;2022-09-20T05:29:13;11.80;99.90
68139;DHT22;54940;50.842;4.410;2022-09-20T05:34:26;11.80;99.90
68139;DHT22;54940;50.842;4.410;2022-09-20T05:36:58;11.70;99.90
68139;DHT22;54940;50.842;4.410;2022-09-20T05:42:54;11.60;99.90
68139;DHT22;54940;50.842;4.410;2022-09-20T05:48:09;11.70;99.90
68139;DHT22;54940;50.842;4.410;2022-09-20T05:50:57;11.60;99.90
68139;DHT22;54940;50.842;4.410;2022-09-20T05:56:40;11.70;99.90
68139;DHT22;54940;50.842;4.410;2022-09-20T06:15:41;11.80;99.90
68139;DHT22;54940;50.842;4.410;2022-09-20T06:23:03;12.00;99.90
68139;DHT22;54940;50.842;4.410;2022-09-20T06:26:00;12.00;99.90
68139;DHT22;54940;50.842;4.410;2022-09-20T06:28:30;11.90;99.90
68139;DHT22;54940;50.842;4.410;2022-09-20T06:30:58;11.90;99.90
68139;DHT22;54940;50.842;4.410;2022-09-20T06:33:25;11.80;99.90
68139;DHT22;54940;50.842;4.410;2022-09-20T06:36:06;11.70;99.90
68139;DHT22;54940;50.842;4.410;2022-09-20T06:41:40;11.80;99.90
68139;DHT22;54940;50.842;4.410;2022-09-20T06:44:07;11.80;99.90
68139;DHT22;54940;50.842;4.410;2022-09-20T06:46:34;11.80;99.90
68139;DHT22;54940;50.842;4.410;2022-09-20T06:49:01;11.90;99.90
68139;DHT22;54940;50.842;4.410;2022-09-20T06:51:33;12.00;99.90
68139;DHT22;54940;50.842;4.410;2022-09-20T06:53:59;12.00;99.90
68139;DHT22;54940;50.842;4.410;2022-09-20T06:56:27;12.10;99.90
68139;DHT22;54940;50.842;4.410;2022-09-20T06:58:54;12.20;99.90
68139;DHT22;54940;50.842;4.410;2022-09-20T07:01:20;12.20;99.90
68139;DHT22;54940;50.842;4.410;2022-09-20T07:03:46;12.30;99.90
68139;DHT22;54940;50.842;4.410;2022-09-20T07:06:12;12.30;99.90
68139;DHT22;54940;50.842;4.410;2022-09-20T07:08:41;12.30;99.90
68139;DHT22;54940;50.842;4.410;2022-09-20T07:11:13;12.40;99.90
68139;DHT22;54940;50.842;4.410;2022-09-20T07:13:41;12.70;99.90
68139;DHT22;54940;50.842;4.410;2022-09-20T07:16:09;13.20;99.90
68139;DHT22;54940;50.842;4.410;2022-09-20T07:18:36;13.80;99.90
68139;DHT22;54940;50.842;4.410;2022-09-20T07:21:02;14.10;99.90
68139;DHT22;54940;50.842;4.410;2022-09-20T07:23:28;14.50;99.90
68139;DHT22;54940;50.842;4.410;2022-09-20T07:25:55;14.80;99.90
68139;DHT22;54940;50.842;4.410;2022-09-20T07:28:30;15.10;99.90
68139;DHT22;54940;50.842;4.410;2022-09-20T07:30:56;15.40;99.90
68139;DHT22;54940;50.842;4.410;2022-09-20T07:33:22;15.40;99.90
68139;DHT22;54940;50.842;4.410;2022-09-20T07:35:50;15.60;99.90
68139;DHT22;54940;50.842;4.410;2022-09-20T07:38:17;15.80;99.90
68139;DHT22;54940;50.842;4.410;2022-09-20T07:40:43;15.90;99.90
68139;DHT22;54940;50.842;4.410;2022-09-20T07:43:11;16.20;99.90
68139;DHT22;54940;50.842;4.410;2022-09-20T07:45:37;16.30;99.90
68139;DHT22;54940;50.842;4.410;2022-09-20T07:48:05;16.60;99.90
68139;DHT22;54940;50.842;4.410;2022-09-20T07:50:32;16.70;99.90
68139;DHT22;54940;50.842;4.410;2022-09-20T07:52:58;16.60;99.90
68139;DHT22;54940;50.842;4.410;2022-09-20T07:55:24;16.80;99.90
68139;DHT22;54940;50.842;4.410;2022-09-20T07:57:50;17.00;99.90
68139;DHT22;54940;50.842;4.410;2022-09-20T08:00:16;17.20;99.90
68139;DHT22;54940;50.842;4.410;2022-09-20T08:02:42;17.10;99.90
68139;DHT22;54940;50.842;4.410;2022-09-20T08:05:09;17.20;99.90
68139;DHT22;54940;50.842;4.410;2022-09-20T08:07:35;17.20;99.90
68139;DHT22;54940;50.842;4.410;2022-09-20T08:10:02;17.40;99.90
68139;DHT22;54940;50.842;4.410;2022-09-20T08:12:28;17.60;99.90
68139;DHT22;54940;50.842;4.410;2022-09-20T08:14:53;17.70;99.90
68139;DHT22;54940;50.842;4.410;2022-09-20T08:17:19;17.50;99.90
68139;DHT22;54940;50.842;4.410;2022-09-20T08:19:45;17.10;99.90
68139;DHT22;54940;50.842;4.410;2022-09-20T08:22:12;16.70;99.90
68139;DHT22;54940;50.842;4.410;2022-09-20T08:24:38;16.40;99.90
68139;DHT22;54940;50.842;4.410;2022-09-20T08:27:04;16.10;99.90
68139;DHT22;54940;50.842;4.410;2022-09-20T08:29:30;16.10;99.90
68139;DHT22;54940;50.842;4.410;2022-09-20T08:31:55;16.40;99.90
68139;DHT22;54940;50.842;4.410;2022-09-20T08:34:23;16.70;99.90
68139;DHT22;54940;50.842;4.410;2022-09-20T08:36:49;16.80;99.90
68139;DHT22;54940;50.842;4.410;2022-09-20T08:39:17;16.70;99.90
68139;DHT22;54940;50.842;4.410;2022-09-20T08:41:50;16.60;99.90
68139;DHT22;54940;50.842;4.410;2022-09-20T08:44:41;16.60;99.90
68139;DHT22;54940;50.842;4.410;2022-09-20T08:47:20;16.50;99.90
68139;DHT22;54940;50.842;4.410;2022-09-20T08:49:51;16.40;99.90
68139;DHT22;54940;50.842;4.410;2022-09-20T08:52:31;16.40;99.90
68139;DHT22;54940;50.842;4.410;2022-09-20T08:54:58;16.20;99.90
68139;DHT22;54940;50.842;4.410;2022-09-20T08:57:31;16.20;99.90
68139;DHT22;54940;50.842;4.410;2022-09-20T08:59:59;16.20;99.90
68139;DHT22;54940;50.842;4.410;2022-09-20T09:02:25;16.20;99.90
68139;DHT22;54940;50.842;4.410;2022-09-20T09:04:54;16.40;99.90
68139;DHT22;54940;50.842;4.410;2022-09-20T09:07:20;16.40;99.90
68139;DHT22;54940;50.842;4.410;2022-09-20T09:09:50;16.60;99.90
68139;DHT22;54940;50.842;4.410;2022-09-20T09:12:25;16.60;99.90
68139;DHT22;54940;50.842;4.410;2022-09-20T09:14:56;16.70;99.90
68139;DHT22;54940;50.842;4.410;2022-09-20T09:17:26;16.60;99.90
68139;DHT22;54940;50.842;4.410;2022-09-20T09:20:18;16.60;99.90
68139;DHT22;54940;50.842;4.410;2022-09-20T09:22:46;16.60;99.90
68139;DHT22;54940;50.842;4.410;2022-09-20T09:30:41;17.20;99.90
68139;DHT22;54940;50.842;4.410;2022-09-20T09:35:39;17.90;99.90
68139;DHT22;54940;50.842;4.410;2022-09-20T09:38:08;18.00;99.90
68139;DHT22;54940;50.842;4.410;2022-09-20T09:40:48;18.10;99.90
68139;DHT22;54940;50.842;4.410;2022-09-20T09:43:20;18.30;99.90
68139;DHT22;54940;50.842;4.410;2022-09-20T09:45:48;18.30;99.90
68139;DHT22;54940;50.842;4.410;2022-09-20T09:50:45;18.50;99.90
68139;DHT22;54940;50.842;4.410;2022-09-20T09:55:59;18.30;99.90
68139;DHT22;54940;50.842;4.410;2022-09-20T09:58:54;18.10;99.90
68139;DHT22;54940;50.842;4.410;2022-09-20T10:01:38;18.00;99.90
68139;DHT22;54940;50.842;4.410;2022-09-20T10:04:24;17.90;99.90
68139;DHT22;54940;50.842;4.410;2022-09-20T10:10:10;17.60;99.90
68139;DHT22;54940;50.842;4.410;2022-09-20T10:21:17;17.50;99.90
68139;DHT22;54940;50.842;4.410;2022-09-20T10:24:05;17.50;99.90
68139;DHT22;54940;50.842;4.410;2022-09-20T10:34:41;18.00;99.90
68139;DHT22;54940;50.842;4.410;2022-09-20T10:40:00;18.10;99.90
68139;DHT22;54940;50.842;4.410;2022-09-20T10:42:43;17.80;99.90
68139;DHT22;54940;50.842;4.410;2022-09-20T10:45:37;17.60;99.90
68139;DHT22;54940;50.842;4.410;2022-09-20T10:51:03;17.40;99.90
68139;DHT22;54940;50.842;4.410;2022-09-20T10:56:34;17.50;99.90
68139;DHT22;54940;50.842;4.410;2022-09-20T10:59:31;17.40;99.90
68139;DHT22;54940;50.842;4.410;2022-09-20T11:05:14;17.20;99.90
68139;DHT22;54940;50.842;4.410;2022-09-20T11:08:11;16.90;99.90
68139;DHT22;54940;50.842;4.410;2022-09-20T11:13:25;16.80;99.90
68139;DHT22;54940;50.842;4.410;2022-09-20T11:16:03;16.70;99.90
68139;DHT22;54940;50.842;4.410;2022-09-20T11:18:50;16.60;99.90
68139;DHT22;54940;50.842;4.410;2022-09-20T11:21:26;16.70;99.90
68139;DHT22;54940;50.842;4.410;2022-09-20T11:26:49;16.40;99.90
68139;DHT22;54940;50.842;4.410;2022-09-20T11:32:01;16.50;99.90
68139;DHT22;54940;50.842;4.410;2022-09-20T11:34:33;16.60;99.90
68139;DHT22;54940;50.842;4.410;2022-09-20T11:37:02;16.60;99.90
68139;DHT22;54940;50.842;4.410;2022-09-20T11:41:55;16.90;99.90
68139;DHT22;54940;50.842;4.410;2022-09-20T11:44:24;16.80;99.90
68139;DHT22;54940;50.842;4.410;2022-09-20T11:47:08;16.80;99.90
68139;DHT22;54940;50.842;4.410;2022-09-20T11:52:28;16.80;99.90
68139;DHT22;54940;50.842;4.410;2022-09-20T11:55:09;16.80;99.90
68139;DHT22;54940;50.842;4.410;2022-09-20T11:57:38;16.80;99.90
68139;DHT22;54940;50.842;4.410;2022-09-20T12:00:05;16.90;99.90
68139;DHT22;54940;50.842;4.410;2022-09-20T12:02:43;17.00;99.90
68139;DHT22;54940;50.842;4.410;2022-09-20T12:05:40;17.00;99.90
68139;DHT22;54940;50.842;4.410;2022-09-20T12:08:17;16.80;99.90
68139;DHT22;54940;50.842;4.410;2022-09-20T12:11:03;16.80;99.90
68139;DHT22;54940;50.842;4.410;2022-09-20T12:13:33;16.80;99.90
68139;DHT22;54940;50.842;4.410;2022-09-20T12:16:36;16.80;99.90
68139;DHT22;54940;50.842;4.410;2022-09-20T12:19:12;16.90;99.90
68139;DHT22;54940;50.842;4.410;2022-09-20T12:24:34;16.90;99.90
68139;DHT22;54940;50.842;4.410;2022-09-20T12:27:19;16.90;99.90
68139;DHT22;54940;50.842;4.410;2022-09-20T12:41:13;17.30;99.90
68139;DHT22;54940;50.842;4.410;2022-09-20T12:43:58;17.30;99.90
68139;DHT22;54940;50.842;4.410;2022-09-20T12:46:35;17.30;99.90
68139;DHT22;54940;50.842;4.410;2022-09-20T12:49:25;17.30;99.90
68139;DHT22;54940;50.842;4.410;2022-09-20T13:05:50;17.40;99.90
68139;DHT22;54940;50.842;4.410;2022-09-20T13:08:52;17.30;99.90
68139;DHT22;54940;50.842;4.410;2022-09-20T13:13:57;17.30;99.90
68139;DHT22;54940;50.842;4.410;2022-09-20T13:19:24;17.20;99.90
68139;DHT22;54940;50.842;4.410;2022-09-20T13:24:29;17.20;99.90
68139;DHT22;54940;50.842;4.410;2022-09-20T13:27:03;17.00;99.90
68139;DHT22;54940;50.842;4.410;2022-09-20T13:29:34;17.00;99.90
68139;DHT22;54940;50.842;4.410;2022-09-20T13:32:27;17.10;99.90
68139;DHT22;54940;50.842;4.410;2022-09-20T13:38:16;17.00;99.90
68139;DHT22;54940;50.842;4.410;2022-09-20T13:40:47;16.90;99.90
68139;DHT22;54940;50.842;4.410;2022-09-20T13:43:42;16.90;99.90
68139;DHT22;54940;50.842;4.410;2022-09-20T13:46:12;17.10;99.90
68139;DHT22;54940;50.842;4.410;2022-09-20T13:48:40;17.00;99.90
68139;DHT22;54940;50.842;4.410;2022-09-20T13:51:26;17.10;99.90
68139;DHT22;54940;50.842;4.410;2022-09-20T13:53:52;17.10;99.90
68139;DHT22;54940;50.842;4.410;2022-09-20T13:56:26;17.10;99.90
68139;DHT22;54940;50.842;4.410;2022-09-20T13:58:54;17.20;99.90
68139;DHT22;54940;50.842;4.410;2022-09-20T14:01:29;17.10;99.90
68139;DHT22;54940;50.842;4.410;2022-09-20T14:04:06;17.20;99.90
68139;DHT22;54940;50.842;4.410;2022-09-20T14:06:32;17.10;99.90
68139;DHT22;54940;50.842;4.410;2022-09-20T14:09:02;17.10;99.90
68139;DHT22;54940;50.842;4.410;2022-09-20T14:11:29;17.00;99.90
68139;DHT22;54940;50.842;4.410;2022-09-20T14:14:02;17.00;99.90
68139;DHT22;54940;50.842;4.410;2022-09-20T14:16:31;17.20;99.90
68139;DHT22;54940;50.842;4.410;2022-09-20T14:18:58;17.20;99.90
68139;DHT22;54940;50.842;4.410;2022-09-20T14:21:30;17.40;99.90
68139;DHT22;54940;50.842;4.410;2022-09-20T14:24:06;17.30;99.90
68139;DHT22;54940;50.842;4.410;2022-09-20T14:26:37;17.20;99.90
68139;DHT22;54940;50.842;4.410;2022-09-20T14:34:43;17.30;99.90
68139;DHT22;54940;50.842;4.410;2022-09-20T14:37:29;17.20;99.90
68139;DHT22;54940;50.842;4.410;2022-09-20T14:40:05;17.10;99.90
68139;DHT22;54940;50.842;4.410;2022-09-20T14:42:42;17.00;99.90
68139;DHT22;54940;50.842;4.410;2022-09-20T14:45:36;17.00;99.90
68139;DHT22;54940;50.842;4.410;2022-09-20T14:56:36;16.90;99.90
68139;DHT22;54940;50.842;4.410;2022-09-20T15:01:40;16.90;99.90
68139;DHT22;54940;50.842;4.410;2022-09-20T15:04:08;17.00;99.90
68139;DHT22;54940;50.842;4.410;2022-09-20T15:06:38;17.00;99.90
68139;DHT22;54940;50.842;4.410;2022-09-20T15:09:04;16.90;99.90
68139;DHT22;54940;50.842;4.410;2022-09-20T15:11:30;16.80;99.90
68139;DHT22;54940;50.842;4.410;2022-09-20T15:13:56;16.80;99.90
68139;DHT22;54940;50.842;4.410;2022-09-20T15:16:21;16.70;99.90
68139;DHT22;54940;50.842;4.410;2022-09-20T15:18:47;16.70;99.90
68139;DHT22;54940;50.842;4.410;2022-09-20T15:21:13;16.80;99.90
68139;DHT22;54940;50.842;4.410;2022-09-20T15:23:39;16.70;99.90
68139;DHT22;54940;50.842;4.410;2022-09-20T15:26:06;16.70;99.90
68139;DHT22;54940;50.842;4.410;2022-09-20T15:28:35;16.70;99.90
68139;DHT22;54940;50.842;4.410;2022-09-20T15:31:01;16.70;99.90
68139;DHT22;54940;50.842;4.410;2022-09-20T15:33:29;16.80;99.90
68139;DHT22;54940;50.842;4.410;2022-09-20T15:35:55;16.90;99.90
68139;DHT22;54940;50.842;4.410;2022-09-20T15:38:21;16.80;99.90
68139;DHT22;54940;50.842;4.410;2022-09-20T15:40:51;16.70;99.90
68139;DHT22;54940;50.842;4.410;2022-09-20T15:43:19;16.60;99.90
68139;DHT22;54940;50.842;4.410;2022-09-20T15:45:57;16.60;99.90
68139;DHT22;54940;50.842;4.410;2022-09-20T15:48:26;16.60;99.90
68139;DHT22;54940;50.842;4.410;2022-09-20T15:51:11;16.50;99.90
68139;DHT22;54940;50.842;4.410;2022-09-20T15:53:40;16.50;99.90
68139;DHT22;54940;50.842;4.410;2022-09-20T15:56:18;16.50;99.90
68139;DHT22;54940;50.842;4.410;2022-09-20T15:58:51;16.50;99.90
68139;DHT22;54940;50.842;4.410;2022-09-20T16:01:27;16.50;99.90
68139;DHT22;54940;50.842;4.410;2022-09-20T16:03:54;16.50;99.90
68139;DHT22;54940;50.842;4.410;2022-09-20T16:06:21;16.40;99.90
68139;DHT22;54940;50.842;4.410;2022-09-20T16:08:47;16.40;99.90
68139;DHT22;54940;50.842;4.410;2022-09-20T16:11:16;16.50;99.90
68139;DHT22;54940;50.842;4.410;2022-09-20T16:13:42;16.40;99.90
68139;DHT22;54940;50.842;4.410;2022-09-20T16:16:09;16.20;99.90
68139;DHT22;54940;50.842;4.410;2022-09-20T16:18:37;16.00;99.90
68139;DHT22;54940;50.842;4.410;2022-09-20T16:21:22;16.20;99.90
68139;DHT22;54940;50.842;4.410;2022-09-20T16:23:50;16.00;99.90
68139;DHT22;54940;50.842;4.410;2022-09-20T16:26:16;16.20;99.90
68139;DHT22;54940;50.842;4.410;2022-09-20T16:28:42;16.10;99.90
68139;DHT22;54940;50.842;4.410;2022-09-20T16:33:52;16.00;99.90
68139;DHT22;54940;50.842;4.410;2022-09-20T16:36:18;15.90;99.90
68139;DHT22;54940;50.842;4.410;2022-09-20T16:38:45;15.90;99.90
68139;DHT22;54940;50.842;4.410;2022-09-20T16:41:11;15.70;99.90
68139;DHT22;54940;50.842;4.410;2022-09-20T16:43:37;15.70;99.90
68139;DHT22;54940;50.842;4.410;2022-09-20T16:46:03;15.70;99.90
68139;DHT22;54940;50.842;4.410;2022-09-20T16:48:29;15.70;99.90
68139;DHT22;54940;50.842;4.410;2022-09-20T16:50:56;15.70;99.90
68139;DHT22;54940;50.842;4.410;2022-09-20T16:53:22;15.70;99.90
68139;DHT22;54940;50.842;4.410;2022-09-20T16:55:49;15.70;99.90
68139;DHT22;54940;50.842;4.410;2022-09-20T16:58:16;15.80;99.90
68139;DHT22;54940;50.842;4.410;2022-09-20T17:00:42;15.70;99.90
68139;DHT22;54940;50.842;4.410;2022-09-20T17:03:07;15.70;99.90
68139;DHT22;54940;50.842;4.410;2022-09-20T17:05:33;15.70;99.90
68139;DHT22;54940;50.842;4.410;2022-09-20T17:07:59;15.70;99.90
68139;DHT22;54940;50.842;4.410;2022-09-20T17:10:25;15.70;99.90
68139;DHT22;54940;50.842;4.410;2022-09-20T17:12:52;15.70;99.90
68139;DHT22;54940;50.842;4.410;2022-09-20T17:15:22;15.60;99.90
68139;DHT22;54940;50.842;4.410;2022-09-20T17:17:48;15.60;99.90
68139;DHT22;54940;50.842;4.410;2022-09-20T17:20:14;15.50;99.90
68139;DHT22;54940;50.842;4.410;2022-09-20T17:22:40;15.40;99.90
68139;DHT22;54940;50.842;4.410;2022-09-20T17:25:07;15.50;99.90
68139;DHT22;54940;50.842;4.410;2022-09-20T17:27:33;15.40;99.90
68139;DHT22;54940;50.842;4.410;2022-09-20T17:30:01;15.40;99.90
68139;DHT22;54940;50.842;4.410;2022-09-20T17:32:27;15.40;99.90
68139;DHT22;54940;50.842;4.410;2022-09-20T17:34:53;15.20;99.90
68139;DHT22;54940;50.842;4.410;2022-09-20T17:37:19;15.10;99.90
68139;DHT22;54940;50.842;4.410;2022-09-20T17:39:45;15.10;99.90
68139;DHT22;54940;50.842;4.410;2022-09-20T17:42:10;15.10;99.90
68139;DHT22;54940;50.842;4.410;2022-09-20T17:44:36;15.10;99.90
68139;DHT22;54940;50.842;4.410;2022-09-20T17:47:02;15.20;99.90
68139;DHT22;54940;50.842;4.410;2022-09-20T17:49:28;15.20;99.90
68139;DHT22;54940;50.842;4.410;2022-09-20T17:51:54;15.20;99.90
68139;DHT22;54940;50.842;4.410;2022-09-20T17:54:21;15.30;99.90
68139;DHT22;54940;50.842;4.410;2022-09-20T17:56:49;15.10;99.90
68139;DHT22;54940;50.842;4.410;2022-09-20T17:59:16;15.00;99.90
68139;DHT22;54940;50.842;4.410;2022-09-20T18:01:44;15.00;99.90
68139;DHT22;54940;50.842;4.410;2022-09-20T18:04:10;14.90;99.90
68139;DHT22;54940;50.842;4.410;2022-09-20T18:06:43;14.90;99.90
68139;DHT22;54940;50.842;4.410;2022-09-20T18:09:12;14.90;99.90
68139;DHT22;54940;50.842;4.410;2022-09-20T18:11:41;14.80;99.90
68139;DHT22;54940;50.842;4.410;2022-09-20T18:14:09;14.80;99.90
68139;DHT22;54940;50.842;4.410;2022-09-20T18:16:35;14.90;99.90
68139;DHT22;54940;50.842;4.410;2022-09-20T18:19:02;14.90;99.90
68139;DHT22;54940;50.842;4.410;2022-09-20T18:21:29;14.90;99.90
68139;DHT22;54940;50.842;4.410;2022-09-20T18:23:56;14.90;99.90
68139;DHT22;54940;50.842;4.410;2022-09-20T18:26:23;14.90;99.90
68139;DHT22;54940;50.842;4.410;2022-09-20T18:29:01;14.90;99.90
68139;DHT22;54940;50.842;4.410;2022-09-20T18:31:42;14.90;99.90
68139;DHT22;54940;50.842;4.410;2022-09-20T18:34:15;14.90;99.90
68139;DHT22;54940;50.842;4.410;2022-09-20T18:36:49;14.80;99.90
68139;DHT22;54940;50.842;4.410;2022-09-20T18:39:25;14.80;99.90
68139;DHT22;54940;50.842;4.410;2022-09-20T18:41:51;14.80;99.90
68139;DHT22;54940;50.842;4.410;2022-09-20T18:44:18;14.80;99.90
68139;DHT22;54940;50.842;4.410;2022-09-20T18:46:44;14.80;99.90
68139;DHT22;54940;50.842;4.410;2022-09-20T18:49:11;14.70;99.90
68139;DHT22;54940;50.842;4.410;2022-09-20T18:51:40;14.70;99.90
68139;DHT22;54940;50.842;4.410;2022-09-20T18:54:07;14.70;99.90
68139;DHT22;54940;50.842;4.410;2022-09-20T18:56:42;14.70;99.90
68139;DHT22;54940;50.842;4.410;2022-09-20T18:59:23;14.60;99.90
68139;DHT22;54940;50.842;4.410;2022-09-20T19:13:24;14.50;99.90
68139;DHT22;54940;50.842;4.410;2022-09-20T19:21:25;14.20;99.90
68139;DHT22;54940;50.842;4.410;2022-09-20T19:26:22;14.10;99.90
68139;DHT22;54940;50.842;4.410;2022-09-20T19:28:51;14.20;99.90
68139;DHT22;54940;50.842;4.410;2022-09-20T19:31:27;14.10;99.90
68139;DHT22;54940;50.842;4.410;2022-09-20T19:33:55;14.10;99.90
68139;DHT22;54940;50.842;4.410;2022-09-20T19:36:34;14.10;99.90
68139;DHT22;54940;50.842;4.410;2022-09-20T19:49:13;14.10;99.90
68139;DHT22;54940;50.842;4.410;2022-09-20T19:51:41;14.10;99.90
68139;DHT22;54940;50.842;4.410;2022-09-20T19:54:13;14.10;99.90
68139;DHT22;54940;50.842;4.410;2022-09-20T19:57:03;14.10;99.90
68139;DHT22;54940;50.842;4.410;2022-09-20T19:59:32;14.10;99.90
68139;DHT22;54940;50.842;4.410;2022-09-20T20:01:59;14.10;99.90
68139;DHT22;54940;50.842;4.410;2022-09-20T20:04:25;14.10;99.90
68139;DHT22;54940;50.842;4.410;2022-09-20T20:12:33;14.00;99.90
68139;DHT22;54940;50.842;4.410;2022-09-20T20:17:51;14.00;99.90
68139;DHT22;54940;50.842;4.410;2022-09-20T20:20:44;14.00;99.90
68139;DHT22;54940;50.842;4.410;2022-09-20T20:26:07;14.00;99.90
68139;DHT22;54940;50.842;4.410;2022-09-20T20:28:35;14.00;99.90
68139;DHT22;54940;50.842;4.410;2022-09-20T20:31:01;14.00;99.90
68139;DHT22;54940;50.842;4.410;2022-09-20T20:33:28;14.00;99.90
68139;DHT22;54940;50.842;4.410;2022-09-20T20:35:56;13.90;99.90
68139;DHT22;54940;50.842;4.410;2022-09-20T20:38:23;13.90;99.90
68139;DHT22;54940;50.842;4.410;2022-09-20T20:41:04;13.90;99.90
68139;DHT22;54940;50.842;4.410;2022-09-20T20:43:35;13.80;99.90
68139;DHT22;54940;50.842;4.410;2022-09-20T20:46:02;13.80;99.90
68139;DHT22;54940;50.842;4.410;2022-09-20T20:48:28;13.80;99.90
68139;DHT22;54940;50.842;4.410;2022-09-20T20:51:14;13.70;99.90
68139;DHT22;54940;50.842;4.410;2022-09-20T20:53:52;13.80;99.90
68139;DHT22;54940;50.842;4.410;2022-09-20T20:56:26;13.70;99.90
68139;DHT22;54940;50.842;4.410;2022-09-20T20:58:53;13.70;99.90
68139;DHT22;54940;50.842;4.410;2022-09-20T21:01:21;13.60;99.90
68139;DHT22;54940;50.842;4.410;2022-09-20T21:03:51;13.60;99.90
68139;DHT22;54940;50.842;4.410;2022-09-20T21:06:18;13.60;99.90
68139;DHT22;54940;50.842;4.410;2022-09-20T21:08:46;13.60;99.90
68139;DHT22;54940;50.842;4.410;2022-09-20T21:11:20;13.60;99.90
68139;DHT22;54940;50.842;4.410;2022-09-20T21:13:51;13.60;99.90
68139;DHT22;54940;50.842;4.410;2022-09-20T21:16:20;13.50;99.90
68139;DHT22;54940;50.842;4.410;2022-09-20T21:18:47;13.50;99.90
68139;DHT22;54940;50.842;4.410;2022-09-20T21:21:25;13.50;99.90
68139;DHT22;54940;50.842;4.410;2022-09-20T21:23:56;13.40;99.90
68139;DHT22;54940;50.842;4.410;2022-09-20T21:26:23;13.40;99.90
68139;DHT22;54940;50.842;4.410;2022-09-20T21:28:54;13.40;99.90
68139;DHT22;54940;50.842;4.410;2022-09-20T21:31:21;13.40;99.90
68139;DHT22;54940;50.842;4.410;2022-09-20T21:33:48;13.30;99.90
68139;DHT22;54940;50.842;4.410;2022-09-20T21:36:24;13.30;99.90
68139;DHT22;54940;50.842;4.410;2022-09-20T21:38:53;13.30;99.90
68139;DHT22;54940;50.842;4.410;2022-09-20T21:41:21;13.30;99.90
68139;DHT22;54940;50.842;4.410;2022-09-20T21:43:47;13.30;99.90
68139;DHT22;54940;50.842;4.410;2022-09-20T21:46:18;13.30;99.90
68139;DHT22;54940;50.842;4.410;2022-09-20T21:48:45;13.20;99.90
68139;DHT22;54940;50.842;4.410;2022-09-20T21:51:13;13.10;99.90
68139;DHT22;54940;50.842;4.410;2022-09-20T21:53:39;13.20;99.90